Time;durP1;ratioP1;P1;durP2;ratioP2;P2;SDS_P1;SDS_P2;PMS_P1;PMS_P2;Temp;Humidity;BMP_temperature;BMP_pressure;BME280_temperature;BME280_humidity;BME280_pressure;Samples;Min_cycle;Max_cycle;Signal;HPM_P1;HPM_P2
2022/05/17 00:02:22;;;;;;;0.97;0.93;;;16.70;99.90;;;;;;5048124;28;20189;-82
2022/05/17 00:04:47;;;;;;;0.50;0.50;;;16.70;99.90;;;;;;5047646;28;20180;-81
2022/05/17 00:07:13;;;;;;;1.53;0.50;;;16.70;99.90;;;;;;5063423;28;20181;-82
2022/05/17 00:09:39;;;;;;;1.70;0.97;;;16.70;99.90;;;;;;5063839;28;21041;-82
2022/05/17 00:12:05;;;;;;;0.70;0.70;;;16.70;99.90;;;;;;5060809;28;20186;-81
2022/05/17 00:14:31;;;;;;;0.43;0.43;;;16.70;99.90;;;;;;5043955;28;20304;-82
2022/05/17 00:16:57;;;;;;;3.10;1.23;;;16.70;99.90;;;;;;5046494;28;20185;-82
2022/05/17 00:19:23;;;;;;;0.40;0.40;;;16.60;99.90;;;;;;5061899;28;20192;-82
2022/05/17 00:21:50;;;;;;;0.37;0.37;;;16.60;99.90;;;;;;5061924;28;20182;-81
2022/05/17 00:24:18;;;;;;;0.77;0.73;;;16.60;99.90;;;;;;5042880;28;20193;-81
2022/05/17 00:26:44;;;;;;;2.33;0.87;;;16.60;99.90;;;;;;5057237;28;20206;-81
2022/05/17 00:29:11;;;;;;;0.73;0.67;;;16.60;99.90;;;;;;5062674;28;20283;-81
2022/05/17 00:31:37;;;;;;;0.50;0.50;;;16.50;99.90;;;;;;5044901;28;20205;-81
2022/05/17 00:34:03;;;;;;;0.50;0.50;;;16.40;99.90;;;;;;5045812;28;20248;-82
2022/05/17 00:36:29;;;;;;;0.77;0.57;;;16.40;99.90;;;;;;5042491;28;20293;-81
2022/05/17 00:38:55;;;;;;;1.57;1.47;;;16.40;99.90;;;;;;5044277;28;20630;-81
2022/05/17 00:41:21;;;;;;;2.77;1.27;;;16.30;99.90;;;;;;5041321;28;20298;-83
2022/05/17 00:46:42;;;;;;;3.63;1.47;;;16.30;99.90;;;;;;5056361;28;20781;-82
2022/05/17 00:49:12;;;;;;;0.83;0.83;;;16.20;99.90;;;;;;5037887;28;20807;-82
2022/05/17 00:51:40;;;;;;;1.53;1.00;;;16.20;99.90;;;;;;5054617;28;20666;-82
2022/05/17 00:54:09;;;;;;;1.50;1.40;;;16.10;99.90;;;;;;5055909;28;20224;-82
2022/05/17 00:56:40;;;;;;;1.23;1.13;;;16.10;99.90;;;;;;5055773;28;20212;-82
2022/05/17 00:59:07;;;;;;;0.33;0.30;;;16.00;99.90;;;;;;5054937;28;20925;-82
2022/05/17 01:01:33;;;;;;;2.53;1.83;;;16.00;99.90;;;;;;5070822;28;20631;-81
2022/05/17 01:04:18;;;;;;;0.60;0.60;;;16.00;99.90;;;;;;5055856;28;20262;-82
2022/05/17 01:06:51;;;;;;;0.40;0.40;;;16.00;99.90;;;;;;5054239;28;20612;-82
2022/05/17 01:09:18;;;;;;;0.53;0.53;;;16.00;99.90;;;;;;5055347;28;20636;-82
2022/05/17 01:11:43;;;;;;;0.40;0.40;;;16.00;99.90;;;;;;5037916;28;20192;-82
2022/05/17 01:16:57;;;;;;;0.30;0.30;;;16.00;99.90;;;;;;5055945;28;20222;-82
2022/05/17 01:19:22;;;;;;;0.70;0.70;;;16.00;99.90;;;;;;5038900;28;20189;-82
2022/05/17 01:21:48;;;;;;;0.20;0.20;;;16.00;99.90;;;;;;5038109;28;20197;-82
2022/05/17 01:24:13;;;;;;;0.87;0.87;;;16.00;99.90;;;;;;5058013;28;20201;-82
2022/05/17 01:26:43;;;;;;;0.53;0.53;;;16.00;99.90;;;;;;5037397;28;20308;-82
2022/05/17 01:29:11;;;;;;;1.10;0.37;;;16.00;99.90;;;;;;5035674;28;20181;-82
2022/05/17 01:31:38;;;;;;;0.67;0.40;;;16.00;99.90;;;;;;5037693;28;20220;-82
2022/05/17 01:34:06;;;;;;;1.17;0.87;;;16.00;99.90;;;;;;5038900;28;20234;-82
2022/05/17 01:36:32;;;;;;;0.80;0.47;;;15.90;99.90;;;;;;5054519;28;21007;-82
2022/05/17 01:38:58;;;;;;;0.80;0.80;;;15.90;99.90;;;;;;5037607;28;20181;-82
2022/05/17 01:41:25;;;;;;;0.47;0.47;;;15.90;99.90;;;;;;5056488;28;20192;-82
2022/05/17 01:43:52;;;;;;;0.40;0.40;;;15.90;99.90;;;;;;5037892;28;20287;-82
2022/05/17 01:46:18;;;;;;;0.67;0.67;;;15.80;99.90;;;;;;5054895;28;20212;-82
2022/05/17 01:48:44;;;;;;;0.77;0.77;;;15.80;99.90;;;;;;5038678;28;20181;-82
2022/05/17 01:51:10;;;;;;;0.60;0.50;;;15.70;99.90;;;;;;5037139;28;20188;-82
2022/05/17 01:53:36;;;;;;;0.40;0.40;;;15.80;99.90;;;;;;5053497;28;20242;-82
2022/05/17 01:56:03;;;;;;;0.47;0.47;;;15.80;99.90;;;;;;5056238;28;20209;-82
2022/05/17 01:58:29;;;;;;;0.60;0.60;;;15.80;99.90;;;;;;5055193;28;20195;-82
2022/05/17 02:00:55;;;;;;;0.40;0.30;;;15.80;99.90;;;;;;5056865;28;20189;-81
2022/05/17 02:03:21;;;;;;;0.57;0.43;;;15.80;99.90;;;;;;5053177;28;20243;-82
2022/05/17 02:05:46;;;;;;;0.73;0.50;;;15.70;99.90;;;;;;5055249;28;20221;-82
2022/05/17 02:08:12;;;;;;;0.57;0.57;;;15.60;99.90;;;;;;5056099;28;20229;-82
2022/05/17 02:10:38;;;;;;;0.30;0.30;;;15.50;99.90;;;;;;5038043;28;20246;-82
2022/05/17 02:13:04;;;;;;;0.40;0.40;;;15.50;99.90;;;;;;5037119;28;20225;-82
2022/05/17 02:15:30;;;;;;;0.60;0.57;;;15.50;99.90;;;;;;5055232;28;20235;-82
2022/05/17 02:17:56;;;;;;;0.57;0.57;;;15.50;99.90;;;;;;5037919;28;20236;-82
2022/05/17 02:20:22;;;;;;;0.77;0.77;;;15.30;99.90;;;;;;5057071;28;20266;-82
2022/05/17 02:22:47;;;;;;;1.90;0.77;;;15.20;99.90;;;;;;5039175;28;20191;-82
2022/05/17 02:25:13;;;;;;;0.87;0.87;;;15.20;99.90;;;;;;5053832;28;20267;-81
2022/05/17 02:27:39;;;;;;;0.77;0.40;;;15.30;99.90;;;;;;5056655;28;20185;-82
2022/05/17 02:30:07;;;;;;;0.57;0.57;;;15.40;99.90;;;;;;5037684;28;20182;-81
2022/05/17 02:32:33;;;;;;;0.90;0.50;;;15.40;99.90;;;;;;5054838;28;20685;-82
2022/05/17 02:34:59;;;;;;;0.50;0.47;;;15.30;99.90;;;;;;5037818;28;21185;-82
2022/05/17 02:37:24;;;;;;;0.80;0.73;;;14.90;99.90;;;;;;5056470;28;20271;-82
2022/05/17 02:39:50;;;;;;;0.30;0.30;;;14.70;99.90;;;;;;5039160;28;20186;-82
2022/05/17 02:42:15;;;;;;;1.90;0.83;;;14.50;99.90;;;;;;5056441;28;20747;-82
2022/05/17 02:44:41;;;;;;;0.40;0.30;;;14.50;99.90;;;;;;5037415;28;20227;-82
2022/05/17 02:47:11;;;;;;;0.93;0.93;;;14.40;99.90;;;;;;5039519;28;20213;-82
2022/05/17 02:49:40;;;;;;;0.63;0.30;;;14.30;99.90;;;;;;5057104;28;20238;-82
2022/05/17 02:52:06;;;;;;;0.67;0.60;;;14.30;99.90;;;;;;5058058;28;20281;-82
2022/05/17 02:54:32;;;;;;;0.60;0.60;;;14.50;99.90;;;;;;5057695;28;20208;-82
2022/05/17 02:56:58;;;;;;;0.60;0.60;;;14.60;99.90;;;;;;5058896;28;20193;-82
2022/05/17 02:59:23;;;;;;;0.47;0.47;;;14.70;99.90;;;;;;5057565;28;20265;-82
2022/05/17 03:01:49;;;;;;;0.23;0.23;;;14.70;99.90;;;;;;5062297;28;20271;-82
2022/05/17 03:04:15;;;;;;;1.13;0.90;;;14.80;99.90;;;;;;5040974;28;20195;-82
2022/05/17 03:06:42;;;;;;;1.70;1.00;;;14.80;99.90;;;;;;5041755;28;20248;-81
2022/05/17 03:09:09;;;;;;;1.07;0.60;;;14.60;99.90;;;;;;5040490;28;20206;-82
2022/05/17 03:11:41;;;;;;;0.93;0.53;;;14.60;99.90;;;;;;5058846;28;20193;-82
2022/05/17 03:14:08;;;;;;;2.60;0.90;;;14.60;99.90;;;;;;5058617;28;20262;-82
2022/05/17 03:16:34;;;;;;;0.40;0.40;;;14.70;99.90;;;;;;5038436;28;20206;-82
2022/05/17 03:19:00;;;;;;;0.23;0.23;;;14.70;99.90;;;;;;5059580;28;20188;-83
2022/05/17 03:21:25;;;;;;;0.37;0.37;;;14.80;99.90;;;;;;5058664;28;20435;-83
2022/05/17 03:23:51;;;;;;;0.53;0.30;;;14.80;99.90;;;;;;5058179;28;20664;-82
2022/05/17 03:26:16;;;;;;;0.30;0.23;;;14.80;99.90;;;;;;5055928;28;20212;-82
2022/05/17 03:28:42;;;;;;;2.53;0.30;;;14.60;99.90;;;;;;5057015;28;20193;-82
2022/05/17 03:31:09;;;;;;;1.27;1.00;;;14.60;99.90;;;;;;5037643;28;20195;-82
2022/05/17 03:33:35;;;;;;;0.90;0.87;;;14.60;99.90;;;;;;5049651;28;20206;-82
2022/05/17 03:36:00;;;;;;;2.40;0.83;;;14.70;99.90;;;;;;5057997;28;20611;-82
2022/05/17 03:38:26;;;;;;;0.30;0.30;;;14.80;99.90;;;;;;5050551;28;20184;-82
2022/05/17 03:40:52;;;;;;;0.63;0.47;;;14.80;99.90;;;;;;5039254;28;20196;-82
2022/05/17 03:43:19;;;;;;;0.33;0.33;;;14.30;99.90;;;;;;5038224;28;20248;-82
2022/05/17 03:45:45;;;;;;;1.20;0.70;;;14.20;99.90;;;;;;5055604;28;20710;-82
2022/05/17 03:48:11;;;;;;;2.27;0.97;;;14.30;99.90;;;;;;5056849;28;20660;-82
2022/05/17 03:50:37;;;;;;;0.43;0.43;;;14.50;99.90;;;;;;5054782;28;20201;-82
2022/05/17 03:53:03;;;;;;;0.40;0.40;;;14.60;99.90;;;;;;5059775;28;20251;-83
2022/05/17 03:55:30;;;;;;;0.83;0.40;;;14.80;99.90;;;;;;5056487;28;20747;-82
2022/05/17 03:57:55;;;;;;;1.03;0.90;;;14.60;99.90;;;;;;5055445;28;20239;-82
2022/05/17 04:00:21;;;;;;;0.53;0.50;;;14.60;99.90;;;;;;5038895;28;20185;-83
2022/05/17 04:02:47;;;;;;;0.23;0.23;;;15.20;99.90;;;;;;5038929;28;20200;-83
2022/05/17 04:05:12;;;;;;;0.20;0.20;;;15.80;99.90;;;;;;5040183;28;20691;-83
2022/05/17 04:07:38;;;;;;;0.97;0.97;;;16.60;99.90;;;;;;5055739;28;20568;-81
2022/05/17 04:10:08;;;;;;;0.47;0.47;;;17.00;99.90;;;;;;5058558;28;20654;-82
2022/05/17 04:12:34;;;;;;;0.20;0.20;;;17.10;99.90;;;;;;5055938;28;21200;-83
2022/05/17 04:15:00;;;;;;;1.27;0.47;;;17.00;99.90;;;;;;5038371;28;20212;-83
2022/05/17 04:17:25;;;;;;;1.33;1.23;;;16.90;99.90;;;;;;5055668;28;20229;-82
2022/05/17 04:19:52;;;;;;;0.40;0.40;;;16.60;99.90;;;;;;5039465;28;20655;-82
2022/05/17 04:22:17;;;;;;;0.37;0.37;;;16.60;99.90;;;;;;5037491;28;20172;-83
2022/05/17 04:24:43;;;;;;;0.60;0.60;;;16.80;99.90;;;;;;5056785;28;20323;-83
2022/05/17 04:27:09;;;;;;;1.50;0.90;;;16.80;99.90;;;;;;5059909;28;20185;-83
2022/05/17 04:29:35;;;;;;;1.27;1.00;;;16.80;99.90;;;;;;5056020;28;20186;-82
2022/05/17 04:32:01;;;;;;;0.53;0.50;;;16.90;99.90;;;;;;5039607;28;20196;-82
2022/05/17 04:34:26;;;;;;;2.23;1.20;;;16.80;99.90;;;;;;5056227;28;20296;-82
2022/05/17 04:36:53;;;;;;;2.10;0.70;;;16.70;99.90;;;;;;5038226;28;20209;-82
2022/05/17 04:39:19;;;;;;;2.30;0.73;;;16.60;99.90;;;;;;5034937;28;20634;-82
2022/05/17 04:41:44;;;;;;;0.80;0.70;;;16.50;99.90;;;;;;5037421;28;20191;-82
2022/05/17 04:44:10;;;;;;;1.83;0.70;;;16.40;99.90;;;;;;5038999;28;20669;-82
2022/05/17 04:46:35;;;;;;;2.80;0.70;;;16.40;99.90;;;;;;5055309;28;20303;-82
2022/05/17 04:49:01;;;;;;;1.80;0.80;;;16.20;99.90;;;;;;5038413;28;20333;-82
2022/05/17 04:51:27;;;;;;;0.63;0.47;;;15.80;99.90;;;;;;5036258;28;20282;-82
2022/05/17 04:53:53;;;;;;;0.70;0.70;;;15.50;99.90;;;;;;5054251;28;21240;-82
2022/05/17 04:56:19;;;;;;;0.70;0.70;;;15.40;99.90;;;;;;5058644;28;20733;-83
2022/05/17 04:58:45;;;;;;;0.50;0.50;;;15.50;99.90;;;;;;5036310;28;20217;-82
2022/05/17 05:01:10;;;;;;;0.40;0.40;;;15.50;99.90;;;;;;5036080;28;20226;-82
2022/05/17 05:03:36;;;;;;;0.73;0.73;;;15.40;99.90;;;;;;5056902;28;20196;-83
2022/05/17 05:06:02;;;;;;;0.93;0.47;;;15.40;99.90;;;;;;5038073;28;20220;-82
2022/05/17 05:08:27;;;;;;;0.77;0.40;;;15.40;99.90;;;;;;5039411;28;20220;-82
2022/05/17 05:10:53;;;;;;;0.37;0.37;;;15.60;99.90;;;;;;5040403;28;20405;-82
2022/05/17 05:13:20;;;;;;;0.40;0.40;;;15.90;99.90;;;;;;5053326;28;20297;-81
2022/05/17 05:15:46;;;;;;;0.47;0.43;;;16.20;99.90;;;;;;5037224;28;20216;-82
2022/05/17 05:18:13;;;;;;;0.93;0.77;;;16.50;99.90;;;;;;5037133;28;20197;-82
2022/05/17 05:20:39;;;;;;;0.70;0.30;;;16.80;99.90;;;;;;5036298;28;20349;-80
2022/05/17 05:23:05;;;;;;;1.10;0.53;;;17.00;99.90;;;;;;5034506;28;20272;-81
2022/05/17 05:25:30;;;;;;;0.87;0.43;;;17.20;99.90;;;;;;5054921;28;20219;-80
2022/05/17 05:27:56;;;;;;;0.47;0.47;;;17.20;99.90;;;;;;5035578;28;20185;-81
2022/05/17 05:30:22;;;;;;;0.50;0.50;;;17.30;99.90;;;;;;5032765;28;20189;-80
2022/05/17 05:32:48;;;;;;;0.50;0.50;;;17.50;99.90;;;;;;5068334;28;21236;-80
2022/05/17 05:35:15;;;;;;;1.50;0.63;;;17.60;99.90;;;;;;5046187;28;20255;-80
2022/05/17 05:37:41;;;;;;;0.23;0.23;;;17.70;99.90;;;;;;5063916;28;20261;-81
2022/05/17 05:40:09;;;;;;;0.87;0.87;;;17.80;99.90;;;;;;5051782;28;20273;-81
2022/05/17 05:42:35;;;;;;;1.00;1.00;;;17.90;99.90;;;;;;5051286;28;20169;-81
2022/05/17 05:45:01;;;;;;;1.30;0.80;;;18.10;99.90;;;;;;5052232;28;20205;-80
2022/05/17 05:47:26;;;;;;;1.17;0.70;;;18.10;99.90;;;;;;5035465;28;20246;-80
2022/05/17 05:49:52;;;;;;;0.43;0.43;;;18.30;99.90;;;;;;5036144;28;20251;-80
2022/05/17 05:52:18;;;;;;;1.27;0.87;;;18.40;99.90;;;;;;5035406;28;20188;-81
2022/05/17 05:54:44;;;;;;;0.47;0.40;;;18.50;99.90;;;;;;5052535;28;20210;-80
2022/05/17 05:57:10;;;;;;;1.67;0.90;;;18.60;99.90;;;;;;5053951;28;20267;-80
2022/05/17 05:59:36;;;;;;;0.40;0.40;;;18.70;99.90;;;;;;5054620;28;20246;-80
2022/05/17 06:02:02;;;;;;;0.83;0.57;;;18.80;99.90;;;;;;5053373;28;20271;-80
2022/05/17 06:04:28;;;;;;;0.50;0.50;;;18.90;99.90;;;;;;5033972;28;20193;-80
2022/05/17 06:06:57;;;;;;;4.43;0.90;;;19.00;99.90;;;;;;5053250;28;20198;-80
2022/05/17 06:09:24;;;;;;;0.43;0.43;;;19.10;99.90;;;;;;5054444;28;20202;-80
2022/05/17 06:11:49;;;;;;;0.70;0.70;;;19.10;99.90;;;;;;5038482;28;20254;-80
2022/05/17 06:14:15;;;;;;;0.63;0.63;;;19.30;99.90;;;;;;5035390;28;20339;-80
2022/05/17 06:16:41;;;;;;;0.70;0.70;;;19.40;99.90;;;;;;5052997;28;20200;-81
2022/05/17 06:19:06;;;;;;;1.30;0.83;;;19.40;99.90;;;;;;5036217;28;20188;-80
2022/05/17 06:21:32;;;;;;;1.20;1.10;;;19.50;99.90;;;;;;5037611;28;20184;-80
2022/05/17 06:23:58;;;;;;;1.83;0.87;;;19.70;99.90;;;;;;5037832;28;20194;-80
2022/05/17 06:26:23;;;;;;;0.83;0.83;;;19.90;99.90;;;;;;5040015;28;20781;-80
2022/05/17 06:28:50;;;;;;;1.83;0.93;;;20.00;99.90;;;;;;5041507;28;20416;-80
2022/05/17 06:31:15;;;;;;;0.53;0.53;;;20.10;99.90;;;;;;5037792;28;20195;-80
2022/05/17 06:33:41;;;;;;;1.10;1.10;;;20.20;99.90;;;;;;5042511;28;20196;-80
2022/05/17 06:36:07;;;;;;;0.60;0.60;;;20.40;99.90;;;;;;5055838;28;20210;-81
2022/05/17 06:38:33;;;;;;;1.60;0.70;;;20.70;99.90;;;;;;5039302;28;20186;-81
2022/05/17 06:40:59;;;;;;;0.83;0.70;;;20.90;99.90;;;;;;5041827;28;20213;-81
2022/05/17 06:43:24;;;;;;;1.13;0.73;;;20.90;99.90;;;;;;5041688;28;20189;-81
2022/05/17 06:45:50;;;;;;;0.67;0.60;;;20.90;99.90;;;;;;5040458;28;20608;-81
2022/05/17 06:48:16;;;;;;;0.50;0.50;;;20.80;99.90;;;;;;5042439;28;20190;-82
2022/05/17 06:50:41;;;;;;;0.53;0.53;;;20.80;99.90;;;;;;5040113;28;20177;-81
2022/05/17 06:53:08;;;;;;;0.53;0.53;;;20.90;99.90;;;;;;5058323;28;20308;-81
2022/05/17 06:55:34;;;;;;;0.40;0.40;;;20.80;99.90;;;;;;5060899;28;20292;-82
2022/05/17 06:58:00;;;;;;;0.83;0.60;;;21.00;99.90;;;;;;5058918;28;20261;-81
2022/05/17 07:00:26;;;;;;;0.67;0.67;;;21.00;99.90;;;;;;5060494;28;20542;-82
2022/05/17 07:02:52;;;;;;;0.70;0.70;;;21.20;99.90;;;;;;5059334;28;20654;-81
2022/05/17 07:05:17;;;;;;;0.70;0.70;;;21.40;99.90;;;;;;5041100;28;20204;-82
2022/05/17 07:07:43;;;;;;;0.73;0.73;;;21.60;99.90;;;;;;5040290;28;20264;-82
2022/05/17 07:13:10;;;;;;;1.00;0.90;;;21.80;99.90;;;;;;5059450;28;20254;-82
2022/05/17 07:15:42;;;;;;;0.50;0.50;;;22.00;99.90;;;;;;5058654;28;20258;-81
2022/05/17 07:18:09;;;;;;;0.87;0.87;;;22.20;99.90;;;;;;5039848;28;20234;-82
2022/05/17 07:20:35;;;;;;;0.93;0.93;;;22.20;99.90;;;;;;5042226;28;20215;-82
2022/05/17 07:23:03;;;;;;;0.97;0.93;;;22.20;99.90;;;;;;5042224;28;20471;-81
2022/05/17 07:25:29;;;;;;;0.93;0.93;;;22.30;99.90;;;;;;5040924;28;20217;-82
2022/05/17 07:27:55;;;;;;;0.43;0.43;;;22.40;99.90;;;;;;5057477;28;20189;-82
2022/05/17 07:30:20;;;;;;;0.67;0.67;;;22.30;99.90;;;;;;5039944;28;20208;-81
2022/05/17 07:32:46;;;;;;;0.77;0.70;;;22.40;99.90;;;;;;5043463;28;20182;-82
2022/05/17 07:35:12;;;;;;;0.40;0.40;;;22.50;99.90;;;;;;5041285;28;20292;-81
2022/05/17 07:37:38;;;;;;;2.30;0.73;;;22.60;99.90;;;;;;5056336;28;20177;-81
2022/05/17 07:40:05;;;;;;;2.33;1.00;;;22.60;99.90;;;;;;5038720;28;20192;-81
2022/05/17 07:42:31;;;;;;;0.73;0.63;;;22.70;99.90;;;;;;5040613;28;20250;-82
2022/05/17 07:44:57;;;;;;;0.50;0.50;;;22.70;99.90;;;;;;5057539;28;20206;-82
2022/05/17 07:47:23;;;;;;;0.50;0.50;;;22.90;99.90;;;;;;5051600;28;20200;-80
2022/05/17 07:49:48;;;;;;;0.63;0.47;;;23.20;99.90;;;;;;5039563;28;20742;-82
2022/05/17 07:52:14;;;;;;;0.57;0.57;;;23.30;99.90;;;;;;5034843;28;20186;-81
2022/05/17 07:54:41;;;;;;;1.07;0.67;;;23.30;99.90;;;;;;5037573;28;20258;-81
2022/05/17 07:57:07;;;;;;;0.50;0.50;;;23.30;99.90;;;;;;5056878;28;20174;-82
2022/05/17 07:59:33;;;;;;;0.30;0.30;;;23.50;99.90;;;;;;5035742;28;20212;-79
2022/05/17 08:01:59;;;;;;;2.00;0.53;;;23.60;99.90;;;;;;5053398;28;20239;-81
2022/05/17 08:04:25;;;;;;;0.50;0.50;;;23.70;99.90;;;;;;5057548;28;20177;-81
2022/05/17 08:06:51;;;;;;;0.60;0.50;;;23.90;99.90;;;;;;5052395;28;20695;-84
2022/05/17 08:09:17;;;;;;;1.33;1.07;;;24.10;99.90;;;;;;5036687;28;20201;-82
2022/05/17 08:11:43;;;;;;;0.57;0.57;;;24.00;99.90;;;;;;5054926;28;20210;-82
2022/05/17 08:14:09;;;;;;;0.53;0.53;;;23.90;99.90;;;;;;5054920;28;20216;-81
2022/05/17 08:16:34;;;;;;;0.67;0.67;;;24.00;99.90;;;;;;5056578;28;20563;-82
2022/05/17 08:19:00;;;;;;;1.70;0.70;;;24.30;99.90;;;;;;5035638;28;20191;-83
2022/05/17 08:21:26;;;;;;;0.43;0.43;;;24.30;99.90;;;;;;5035934;28;20193;-83
2022/05/17 08:23:51;;;;;;;1.73;0.50;;;24.50;99.90;;;;;;5036637;28;20247;-82
2022/05/17 08:29:01;;;;;;;0.40;0.40;;;25.00;99.90;;;;;;5053495;28;20668;-82
2022/05/17 08:31:26;;;;;;;1.13;0.70;;;24.70;99.90;;;;;;5037594;28;20186;-82
2022/05/17 08:33:52;;;;;;;0.40;0.40;;;24.60;99.90;;;;;;5036257;28;20219;-83
2022/05/17 08:36:18;;;;;;;0.33;0.33;;;25.10;99.90;;;;;;5054504;28;20584;-83
2022/05/17 08:38:47;;;;;;;0.80;0.77;;;25.40;99.90;;;;;;5037031;28;20197;-82
2022/05/17 08:41:19;;;;;;;1.40;0.80;;;25.50;99.90;;;;;;5054001;28;20686;-83
2022/05/17 08:44:04;;;;;;;1.50;0.43;;;25.80;99.90;;;;;;5055808;28;20189;-83
2022/05/17 08:46:41;;;;;;;0.77;0.30;;;26.10;99.90;;;;;;5035678;28;20200;-83
2022/05/17 08:49:16;;;;;;;0.93;0.77;;;25.80;99.90;;;;;;5036519;28;20191;-83
2022/05/17 08:52:06;;;;;;;0.63;0.23;;;26.00;99.90;;;;;;5054504;28;20189;-83
2022/05/17 08:54:59;;;;;;;0.30;0.30;;;25.70;99.90;;;;;;5038197;28;20212;-83
2022/05/17 08:57:37;;;;;;;1.07;0.97;;;25.70;99.90;;;;;;5070508;28;20174;-83
2022/05/17 09:00:05;;;;;;;0.60;0.60;;;25.70;99.90;;;;;;5056734;28;20658;-83
2022/05/17 09:02:41;;;;;;;0.30;0.30;;;25.80;99.90;;;;;;5055524;28;20185;-83
2022/05/17 09:05:10;;;;;;;1.50;1.07;;;25.50;99.90;;;;;;5037552;28;20209;-82
2022/05/17 09:07:59;;;;;;;0.70;0.70;;;25.50;99.90;;;;;;5038458;28;20200;-83
2022/05/17 09:10:36;;;;;;;0.40;0.40;;;25.60;99.90;;;;;;5069620;28;20181;-83
2022/05/17 09:13:25;;;;;;;0.60;0.60;;;25.70;99.90;;;;;;5037043;28;20208;-82
2022/05/17 09:15:55;;;;;;;0.77;0.70;;;25.60;99.90;;;;;;5033402;28;20287;-83
2022/05/17 09:18:22;;;;;;;0.70;0.70;;;25.50;99.90;;;;;;5054607;28;20268;-83
2022/05/17 09:20:48;;;;;;;1.80;0.93;;;25.10;99.90;;;;;;5071214;28;20185;-82
2022/05/17 09:23:14;;;;;;;0.67;0.60;;;25.00;99.90;;;;;;5036062;28;20251;-83
2022/05/17 09:25:58;;;;;;;1.00;0.90;;;25.30;99.90;;;;;;5036267;28;20219;-82
2022/05/17 09:28:26;;;;;;;0.60;0.60;;;24.60;99.90;;;;;;5033928;28;20225;-81
2022/05/17 09:31:12;;;;;;;0.60;0.53;;;25.30;99.90;;;;;;5052013;28;20193;-81
2022/05/17 09:33:39;;;;;;;0.93;0.93;;;25.60;99.90;;;;;;5050447;28;20675;-81
2022/05/17 09:36:06;;;;;;;0.60;0.57;;;26.00;99.90;;;;;;5034480;28;20289;-81
2022/05/17 09:38:34;;;;;;;0.73;0.50;;;25.90;99.90;;;;;;5033509;28;20190;-81
2022/05/17 09:41:00;;;;;;;0.80;0.70;;;26.10;99.90;;;;;;5034075;28;20272;-81
2022/05/17 09:43:48;;;;;;;0.67;0.60;;;26.20;99.90;;;;;;5053032;28;20350;-81
2022/05/17 09:46:27;;;;;;;0.50;0.50;;;26.40;99.90;;;;;;5047463;28;20212;-83
2022/05/17 09:54:45;;;;;;;0.60;0.60;;;26.50;99.90;;;;;;5052550;28;20320;-81
2022/05/17 09:57:30;;;;;;;0.90;0.67;;;26.60;99.90;;;;;;5051746;28;20253;-81
2022/05/17 10:00:08;;;;;;;0.37;0.33;;;25.60;99.90;;;;;;5052511;28;20672;-81
2022/05/17 10:02:57;;;;;;;2.80;0.57;;;25.50;99.90;;;;;;5032336;28;20556;-82
2022/05/17 10:05:38;;;;;;;0.90;0.70;;;26.40;99.90;;;;;;5022516;28;20220;-81
2022/05/17 10:08:25;;;;;;;0.43;0.40;;;26.50;99.90;;;;;;5052461;28;21260;-82
2022/05/17 10:11:02;;;;;;;0.30;0.30;;;26.80;99.90;;;;;;5051648;28;20192;-81
2022/05/17 10:13:38;;;;;;;0.20;0.20;;;27.10;99.90;;;;;;5034892;28;20209;-82
2022/05/17 10:16:11;;;;;;;0.70;0.70;;;27.00;99.90;;;;;;5035120;28;21141;-83
2022/05/17 10:18:58;;;;;;;0.30;0.30;;;27.40;99.90;;;;;;5036365;28;20200;-83
2022/05/17 10:21:41;;;;;;;0.93;0.50;;;27.90;99.90;;;;;;5052794;28;20177;-83
2022/05/17 10:24:16;;;;;;;0.40;0.40;;;28.10;99.90;;;;;;5035532;28;20284;-83
2022/05/17 10:26:47;;;;;;;0.57;0.57;;;28.00;99.90;;;;;;5035199;28;20235;-83
2022/05/17 10:29:33;;;;;;;2.10;0.80;;;28.10;99.90;;;;;;5034373;28;20185;-83
2022/05/17 10:32:19;;;;;;;0.60;0.40;;;28.00;99.90;;;;;;5035598;28;20219;-82
2022/05/17 10:34:55;;;;;;;0.43;0.43;;;27.90;99.90;;;;;;5052724;28;20219;-83
2022/05/17 10:37:27;;;;;;;0.35;0.35;;;26.70;99.90;;;;;;5053935;28;20209;-83
2022/05/17 10:40:08;;;;;;;1.73;1.63;;;26.30;99.90;;;;;;5030361;28;20219;-82
2022/05/17 10:42:36;;;;;;;1.95;1.85;;;26.70;99.90;;;;;;5036887;28;20185;-83
2022/05/17 10:45:03;;;;;;;0.20;0.20;;;26.90;99.90;;;;;;5054149;28;20209;-82
2022/05/17 10:47:52;;;;;;;0.30;0.30;;;27.10;99.90;;;;;;5055951;28;20722;-83
2022/05/17 10:50:44;;;;;;;0.40;0.40;;;26.80;99.90;;;;;;5055882;28;21844;-83
2022/05/17 10:53:15;;;;;;;0.23;0.20;;;26.90;99.90;;;;;;5037064;28;20730;-82
2022/05/17 10:55:53;;;;;;;0.40;0.40;;;27.40;99.90;;;;;;5053232;28;20283;-82
2022/05/17 10:58:37;;;;;;;0.30;0.30;;;27.80;99.90;;;;;;5035559;28;20230;-83
2022/05/17 11:01:12;;;;;;;0.30;0.30;;;28.10;99.90;;;;;;5040350;28;20185;-82
2022/05/17 11:03:40;;;;;;;0.30;0.30;;;28.50;99.90;;;;;;5038523;28;20260;-83
2022/05/17 11:06:44;;;;;;;0.30;0.30;;;28.70;99.90;;;;;;5057856;28;20210;-83
2022/05/17 11:09:47;;;;;;;0.63;0.60;;;28.70;99.90;;;;;;5051964;28;20192;-83
2022/05/17 11:12:16;;;;;;;0.50;0.50;;;28.30;99.90;;;;;;5054598;28;20185;-83
2022/05/17 11:15:10;;;;;;;1.38;0.60;;;27.50;99.90;;;;;;5059229;28;20741;-82
2022/05/17 11:17:50;;;;;;;0.35;0.35;;;27.00;99.90;;;;;;5053010;28;20208;-82
2022/05/17 11:20:44;;;;;;;0.40;0.40;;;26.90;99.90;;;;;;5060554;28;20185;-82
2022/05/17 11:23:48;;;;;;;0.40;0.40;;;27.20;99.90;;;;;;5061235;28;20193;-81
2022/05/17 11:26:40;;;;;;;0.43;0.43;;;28.10;99.90;;;;;;5055814;28;20302;-82
2022/05/17 11:29:24;;;;;;;0.40;0.40;;;27.70;99.90;;;;;;5060085;28;20204;-82
2022/05/17 11:32:15;;;;;;;3.70;0.77;;;27.10;99.90;;;;;;5056882;28;20200;-82
2022/05/17 11:34:45;;;;;;;1.45;0.52;;;28.10;99.90;;;;;;5040284;28;20204;-82
2022/05/17 11:37:32;;;;;;;0.57;0.47;;;28.30;99.90;;;;;;5058417;28;20226;-82
2022/05/17 11:40:00;;;;;;;0.28;0.28;;;28.80;99.90;;;;;;5057220;28;20219;-82
2022/05/17 11:42:31;;;;;;;0.50;0.50;;;28.70;99.90;;;;;;5041336;28;20382;-82
2022/05/17 11:45:18;;;;;;;0.45;0.40;;;27.80;99.90;;;;;;5059005;28;20206;-82
2022/05/17 11:47:44;;;;;;;0.98;0.88;;;27.80;99.90;;;;;;5057879;28;20250;-82
2022/05/17 11:50:15;;;;;;;0.40;0.40;;;27.30;99.90;;;;;;5041042;28;21026;-83
2022/05/17 11:52:49;;;;;;;1.35;0.52;;;26.90;99.90;;;;;;5061317;28;20571;-82
2022/05/17 11:55:22;;;;;;;0.20;0.20;;;27.00;99.90;;;;;;5072499;28;20267;-82
2022/05/17 11:57:47;;;;;;;0.30;0.30;;;28.20;99.90;;;;;;5057323;28;20192;-83
2022/05/17 12:00:26;;;;;;;0.40;0.40;;;27.60;99.90;;;;;;5058401;28;20182;-82
2022/05/17 12:02:56;;;;;;;0.30;0.30;;;28.00;99.90;;;;;;5056665;28;20196;-82
2022/05/17 12:05:37;;;;;;;0.30;0.30;;;28.40;99.90;;;;;;5055312;28;20194;-83
2022/05/17 12:08:28;;;;;;;0.25;0.25;;;27.70;99.90;;;;;;5054047;28;20203;-82
2022/05/17 12:11:02;;;;;;;0.63;0.60;;;28.10;99.90;;;;;;5058390;28;20177;-82
2022/05/17 12:13:30;;;;;;;0.20;0.20;;;28.00;99.90;;;;;;5053717;28;20204;-82
2022/05/17 12:15:55;;;;;;;0.30;0.30;;;27.90;99.90;;;;;;5053753;28;20201;-82
2022/05/17 12:18:38;;;;;;;1.27;0.35;;;27.60;99.90;;;;;;5057862;28;20931;-82
2022/05/17 12:21:25;;;;;;;0.50;0.50;;;28.00;99.90;;;;;;5038313;28;20178;-81
2022/05/17 12:24:21;;;;;;;0.40;0.40;;;29.00;99.90;;;;;;5056459;28;20178;-82
2022/05/17 12:27:01;;;;;;;0.30;0.30;;;29.40;99.90;;;;;;5043191;28;20763;-82
2022/05/17 12:32:17;;;;;;;0.77;0.63;;;29.20;99.90;;;;;;5058995;28;20618;-82
2022/05/17 12:34:53;;;;;;;0.47;0.47;;;29.30;99.90;;;;;;5057678;28;20674;-82
2022/05/17 12:37:23;;;;;;;0.45;0.45;;;28.30;99.90;;;;;;5041058;28;20190;-82
2022/05/17 12:45:25;;;;;;;0.70;0.47;;;26.70;99.90;;;;;;5053412;28;20216;-80
2022/05/17 12:47:53;;;;;;;0.38;0.38;;;26.70;99.90;;;;;;5036698;28;20202;-80
2022/05/17 12:50:41;;;;;;;0.60;0.60;;;26.40;99.90;;;;;;5053516;28;20204;-81
2022/05/17 12:53:20;;;;;;;0.28;0.28;;;27.00;99.90;;;;;;5028201;28;20284;-80
2022/05/17 12:56:00;;;;;;;1.20;0.65;;;27.20;99.90;;;;;;5035919;28;20204;-80
2022/05/17 12:58:26;;;;;;;2.35;1.40;;;26.30;99.90;;;;;;5055008;28;20837;-80
2022/05/17 13:00:54;;;;;;;0.30;0.30;;;26.40;99.90;;;;;;5053462;28;20212;-80
2022/05/17 13:03:23;;;;;;;0.28;0.28;;;26.70;99.90;;;;;;5054086;28;20216;-80
2022/05/17 13:05:51;;;;;;;0.30;0.30;;;27.00;99.90;;;;;;5050836;28;20857;-80
2022/05/17 13:08:27;;;;;;;0.28;0.28;;;28.10;99.90;;;;;;5052874;28;20237;-80
2022/05/17 13:11:12;;;;;;;0.50;0.50;;;28.10;99.90;;;;;;5033813;28;20920;-80
2022/05/17 13:13:41;;;;;;;0.43;0.30;;;27.90;99.90;;;;;;5052211;28;20206;-80
2022/05/17 13:16:15;;;;;;;0.30;0.30;;;27.60;99.90;;;;;;5037230;28;20210;-82
2022/05/17 13:18:51;;;;;;;0.30;0.30;;;27.90;99.90;;;;;;5054805;28;20191;-82
2022/05/17 13:21:25;;;;;;;0.20;0.20;;;28.00;99.90;;;;;;5055109;28;20180;-82
2022/05/17 13:23:56;;;;;;;0.20;0.20;;;28.80;99.90;;;;;;5037008;28;20731;-82
2022/05/17 13:26:29;;;;;;;0.85;0.85;;;28.60;99.90;;;;;;5056552;28;20236;-82
2022/05/17 13:28:55;;;;;;;0.20;0.20;;;28.30;99.90;;;;;;5052903;28;20185;-81